sensor_id;sensor_type;location;lat;lon;timestamp;temperature;humidity
29341;DHT22;16337;59.536;13.468;2024-03-23T00:53:12;-0.40;99.90
29341;DHT22;16337;59.536;13.468;2024-03-23T00:55:40;-0.50;99.90
29341;DHT22;16337;59.536;13.468;2024-03-23T00:58:06;-0.40;99.90
29341;DHT22;16337;59.536;13.468;2024-03-23T01:00:32;-0.50;99.90
29341;DHT22;16337;59.536;13.468;2024-03-23T01:02:58;-0.50;99.90
29341;DHT22;16337;59.536;13.468;2024-03-23T01:05:23;-0.50;99.90
29341;DHT22;16337;59.536;13.468;2024-03-23T01:07:49;-0.50;99.90
29341;DHT22;16337;59.536;13.468;2024-03-23T01:10:15;-0.60;99.90
29341;DHT22;16337;59.536;13.468;2024-03-23T01:12:41;-0.60;99.90
29341;DHT22;16337;59.536;13.468;2024-03-23T01:15:06;-0.60;99.90
29341;DHT22;16337;59.536;13.468;2024-03-23T01:17:32;-0.60;99.90
29341;DHT22;16337;59.536;13.468;2024-03-23T01:19:58;-0.60;99.90
29341;DHT22;16337;59.536;13.468;2024-03-23T01:22:23;-0.70;99.90
29341;DHT22;16337;59.536;13.468;2024-03-23T01:24:49;-0.70;99.90
29341;DHT22;16337;59.536;13.468;2024-03-23T01:27:15;-0.70;99.90
29341;DHT22;16337;59.536;13.468;2024-03-23T01:29:40;-0.80;99.90
29341;DHT22;16337;59.536;13.468;2024-03-23T01:32:06;-0.80;99.90
29341;DHT22;16337;59.536;13.468;2024-03-23T01:34:32;-0.90;99.90
29341;DHT22;16337;59.536;13.468;2024-03-23T01:36:58;-0.90;99.90
29341;DHT22;16337;59.536;13.468;2024-03-23T01:39:24;-0.90;99.90
29341;DHT22;16337;59.536;13.468;2024-03-23T01:41:50;-0.90;99.90
29341;DHT22;16337;59.536;13.468;2024-03-23T01:44:15;-0.80;99.90
29341;DHT22;16337;59.536;13.468;2024-03-23T01:46:41;-0.80;99.90
29341;DHT22;16337;59.536;13.468;2024-03-23T01:49:08;-0.80;99.90
29341;DHT22;16337;59.536;13.468;2024-03-23T01:51:37;-0.90;99.90
29341;DHT22;16337;59.536;13.468;2024-03-23T01:54:03;-0.90;99.90
29341;DHT22;16337;59.536;13.468;2024-03-23T01:56:31;-1.00;99.90
29341;DHT22;16337;59.536;13.468;2024-03-23T01:58:58;-1.10;99.90
29341;DHT22;16337;59.536;13.468;2024-03-23T02:01:24;-1.00;99.90
29341;DHT22;16337;59.536;13.468;2024-03-23T02:03:49;-0.90;99.90
29341;DHT22;16337;59.536;13.468;2024-03-23T02:06:15;-0.80;99.90
29341;DHT22;16337;59.536;13.468;2024-03-23T02:08:41;-0.80;99.90
29341;DHT22;16337;59.536;13.468;2024-03-23T02:11:07;-0.90;99.90
29341;DHT22;16337;59.536;13.468;2024-03-23T02:13:32;-0.70;99.90
29341;DHT22;16337;59.536;13.468;2024-03-23T02:15:58;-0.70;99.90
29341;DHT22;16337;59.536;13.468;2024-03-23T02:18:24;-0.80;99.90
29341;DHT22;16337;59.536;13.468;2024-03-23T02:20:49;-0.80;99.90
29341;DHT22;16337;59.536;13.468;2024-03-23T02:23:16;-0.90;99.90
29341;DHT22;16337;59.536;13.468;2024-03-23T02:25:42;-1.00;99.90
29341;DHT22;16337;59.536;13.468;2024-03-23T02:28:07;-0.90;99.90
29341;DHT22;16337;59.536;13.468;2024-03-23T02:30:33;-1.00;99.90
29341;DHT22;16337;59.536;13.468;2024-03-23T02:32:59;-1.00;99.90
29341;DHT22;16337;59.536;13.468;2024-03-23T02:35:25;-1.00;99.90
29341;DHT22;16337;59.536;13.468;2024-03-23T02:37:59;-1.10;99.90
29341;DHT22;16337;59.536;13.468;2024-03-23T02:40:25;-1.00;99.90
29341;DHT22;16337;59.536;13.468;2024-03-23T02:42:52;-0.90;99.90
29341;DHT22;16337;59.536;13.468;2024-03-23T02:45:18;-0.90;99.90
29341;DHT22;16337;59.536;13.468;2024-03-23T02:47:43;-1.00;99.90
29341;DHT22;16337;59.536;13.468;2024-03-23T02:50:09;-1.00;99.90
29341;DHT22;16337;59.536;13.468;2024-03-23T02:52:35;-1.00;99.90
29341;DHT22;16337;59.536;13.468;2024-03-23T02:55:01;-0.90;99.90
29341;DHT22;16337;59.536;13.468;2024-03-23T02:57:27;-0.80;99.90
29341;DHT22;16337;59.536;13.468;2024-03-23T02:59:53;-0.80;99.90
29341;DHT22;16337;59.536;13.468;2024-03-23T03:02:27;-0.80;99.90
29341;DHT22;16337;59.536;13.468;2024-03-23T03:04:52;-0.90;99.90
29341;DHT22;16337;59.536;13.468;2024-03-23T03:07:21;-0.90;99.90
29341;DHT22;16337;59.536;13.468;2024-03-23T03:09:47;-1.00;99.90
29341;DHT22;16337;59.536;13.468;2024-03-23T03:12:12;-0.90;99.90
29341;DHT22;16337;59.536;13.468;2024-03-23T03:14:41;-1.00;99.90
29341;DHT22;16337;59.536;13.468;2024-03-23T03:17:09;-0.90;99.90
29341;DHT22;16337;59.536;13.468;2024-03-23T03:19:35;-0.90;99.90
29341;DHT22;16337;59.536;13.468;2024-03-23T03:22:01;-0.80;99.90
29341;DHT22;16337;59.536;13.468;2024-03-23T03:24:26;-0.90;99.90
29341;DHT22;16337;59.536;13.468;2024-03-23T03:26:54;-0.90;99.90
29341;DHT22;16337;59.536;13.468;2024-03-23T03:29:23;-0.80;99.90
29341;DHT22;16337;59.536;13.468;2024-03-23T03:31:49;-0.80;99.90
29341;DHT22;16337;59.536;13.468;2024-03-23T03:34:15;-0.90;99.90
29341;DHT22;16337;59.536;13.468;2024-03-23T03:36:41;-0.90;99.90
29341;DHT22;16337;59.536;13.468;2024-03-23T03:39:07;-0.80;99.90
29341;DHT22;16337;59.536;13.468;2024-03-23T03:41:32;-0.70;99.90
29341;DHT22;16337;59.536;13.468;2024-03-23T03:43:58;-0.70;99.90
29341;DHT22;16337;59.536;13.468;2024-03-23T03:46:28;-0.70;99.90
29341;DHT22;16337;59.536;13.468;2024-03-23T03:48:57;-0.60;99.90
29341;DHT22;16337;59.536;13.468;2024-03-23T03:51:22;-0.60;99.90
29341;DHT22;16337;59.536;13.468;2024-03-23T03:53:48;-0.60;99.90
29341;DHT22;16337;59.536;13.468;2024-03-23T03:56:14;-0.60;99.90
29341;DHT22;16337;59.536;13.468;2024-03-23T03:58:39;-0.50;99.90
29341;DHT22;16337;59.536;13.468;2024-03-23T04:01:07;-0.40;99.90
29341;DHT22;16337;59.536;13.468;2024-03-23T04:03:34;-0.30;99.90
29341;DHT22;16337;59.536;13.468;2024-03-23T04:06:00;-0.20;99.90
29341;DHT22;16337;59.536;13.468;2024-03-23T04:08:26;-0.10;99.90
29341;DHT22;16337;59.536;13.468;2024-03-23T04:10:51;0.00;99.90
29341;DHT22;16337;59.536;13.468;2024-03-23T04:13:17;0.10;99.90
29341;DHT22;16337;59.536;13.468;2024-03-23T04:15:42;0.10;99.90
29341;DHT22;16337;59.536;13.468;2024-03-23T04:18:08;0.20;99.90
29341;DHT22;16337;59.536;13.468;2024-03-23T04:20:34;0.20;99.90
29341;DHT22;16337;59.536;13.468;2024-03-23T04:23:00;0.40;99.90
29341;DHT22;16337;59.536;13.468;2024-03-23T04:25:25;0.40;99.90
29341;DHT22;16337;59.536;13.468;2024-03-23T04:27:51;0.40;99.90
29341;DHT22;16337;59.536;13.468;2024-03-23T04:30:17;0.50;99.90
29341;DHT22;16337;59.536;13.468;2024-03-23T04:32:43;0.40;99.90
29341;DHT22;16337;59.536;13.468;2024-03-23T04:35:09;0.50;99.90
29341;DHT22;16337;59.536;13.468;2024-03-23T04:37:40;0.50;99.90
29341;DHT22;16337;59.536;13.468;2024-03-23T04:40:06;0.50;99.90
29341;DHT22;16337;59.536;13.468;2024-03-23T04:42:33;0.50;99.90
29341;DHT22;16337;59.536;13.468;2024-03-23T04:44:59;0.60;99.90
29341;DHT22;16337;59.536;13.468;2024-03-23T04:47:25;0.60;99.90
29341;DHT22;16337;59.536;13.468;2024-03-23T04:49:50;0.70;99.90
29341;DHT22;16337;59.536;13.468;2024-03-23T04:52:17;0.70;99.90
29341;DHT22;16337;59.536;13.468;2024-03-23T04:54:42;0.70;99.90
29341;DHT22;16337;59.536;13.468;2024-03-23T04:57:11;0.70;99.90
29341;DHT22;16337;59.536;13.468;2024-03-23T04:59:37;0.70;99.90
29341;DHT22;16337;59.536;13.468;2024-03-23T05:02:02;0.70;99.90
29341;DHT22;16337;59.536;13.468;2024-03-23T05:04:28;0.70;99.90
29341;DHT22;16337;59.536;13.468;2024-03-23T05:06:54;0.70;99.90
29341;DHT22;16337;59.536;13.468;2024-03-23T05:09:20;0.60;99.90
29341;DHT22;16337;59.536;13.468;2024-03-23T05:11:46;0.70;99.90
29341;DHT22;16337;59.536;13.468;2024-03-23T05:14:13;0.70;99.90
29341;DHT22;16337;59.536;13.468;2024-03-23T05:16:42;0.70;99.90
29341;DHT22;16337;59.536;13.468;2024-03-23T05:19:08;0.70;99.90
29341;DHT22;16337;59.536;13.468;2024-03-23T05:21:33;0.80;99.90
29341;DHT22;16337;59.536;13.468;2024-03-23T05:23:59;0.80;99.90
29341;DHT22;16337;59.536;13.468;2024-03-23T05:26:25;0.90;99.90
29341;DHT22;16337;59.536;13.468;2024-03-23T05:28:50;0.90;99.90
29341;DHT22;16337;59.536;13.468;2024-03-23T05:31:26;0.90;99.90
29341;DHT22;16337;59.536;13.468;2024-03-23T05:33:52;1.00;99.90
29341;DHT22;16337;59.536;13.468;2024-03-23T05:36:18;1.10;99.90
29341;DHT22;16337;59.536;13.468;2024-03-23T05:38:44;1.30;99.90
29341;DHT22;16337;59.536;13.468;2024-03-23T05:41:10;1.40;99.90
29341;DHT22;16337;59.536;13.468;2024-03-23T05:43:35;1.40;99.90
29341;DHT22;16337;59.536;13.468;2024-03-23T05:46:01;1.50;99.90
29341;DHT22;16337;59.536;13.468;2024-03-23T05:48:27;1.60;99.90
29341;DHT22;16337;59.536;13.468;2024-03-23T05:50:53;1.70;99.90
29341;DHT22;16337;59.536;13.468;2024-03-23T05:53:20;1.80;99.90
29341;DHT22;16337;59.536;13.468;2024-03-23T05:55:49;2.00;99.90
29341;DHT22;16337;59.536;13.468;2024-03-23T05:58:16;2.20;99.90
29341;DHT22;16337;59.536;13.468;2024-03-23T06:00:43;2.40;99.90
29341;DHT22;16337;59.536;13.468;2024-03-23T06:03:09;2.40;99.90
29341;DHT22;16337;59.536;13.468;2024-03-23T06:05:38;2.60;99.90
29341;DHT22;16337;59.536;13.468;2024-03-23T06:08:05;2.70;99.90
29341;DHT22;16337;59.536;13.468;2024-03-23T06:10:31;2.80;99.90
29341;DHT22;16337;59.536;13.468;2024-03-23T06:12:57;2.80;99.90
29341;DHT22;16337;59.536;13.468;2024-03-23T06:15:24;2.90;99.90
29341;DHT22;16337;59.536;13.468;2024-03-23T06:17:50;2.90;99.90
29341;DHT22;16337;59.536;13.468;2024-03-23T06:20:16;2.80;99.90
29341;DHT22;16337;59.536;13.468;2024-03-23T06:22:42;2.90;99.90
29341;DHT22;16337;59.536;13.468;2024-03-23T06:25:08;2.90;99.90
29341;DHT22;16337;59.536;13.468;2024-03-23T06:27:33;2.90;99.90
29341;DHT22;16337;59.536;13.468;2024-03-23T06:29:59;3.00;99.90
29341;DHT22;16337;59.536;13.468;2024-03-23T06:32:25;3.00;99.90
29341;DHT22;16337;59.536;13.468;2024-03-23T06:34:51;3.20;99.90
29341;DHT22;16337;59.536;13.468;2024-03-23T06:37:16;3.30;99.90
29341;DHT22;16337;59.536;13.468;2024-03-23T06:39:42;3.40;99.90
29341;DHT22;16337;59.536;13.468;2024-03-23T06:42:08;3.50;99.90
29341;DHT22;16337;59.536;13.468;2024-03-23T06:44:34;3.70;99.90
29341;DHT22;16337;59.536;13.468;2024-03-23T06:46:59;3.80;99.90
29341;DHT22;16337;59.536;13.468;2024-03-23T06:49:25;3.90;99.90
29341;DHT22;16337;59.536;13.468;2024-03-23T06:51:51;3.90;99.90
29341;DHT22;16337;59.536;13.468;2024-03-23T06:54:19;4.00;99.90
29341;DHT22;16337;59.536;13.468;2024-03-23T06:56:44;4.10;99.90
29341;DHT22;16337;59.536;13.468;2024-03-23T06:59:10;4.20;99.90
29341;DHT22;16337;59.536;13.468;2024-03-23T07:01:36;4.20;99.90
29341;DHT22;16337;59.536;13.468;2024-03-23T07:04:02;4.30;99.90
29341;DHT22;16337;59.536;13.468;2024-03-23T07:06:29;4.40;99.90
29341;DHT22;16337;59.536;13.468;2024-03-23T07:08:55;4.40;99.90
29341;DHT22;16337;59.536;13.468;2024-03-23T07:11:21;4.50;99.90
29341;DHT22;16337;59.536;13.468;2024-03-23T07:13:49;4.60;99.90
29341;DHT22;16337;59.536;13.468;2024-03-23T07:16:16;4.70;99.90
29341;DHT22;16337;59.536;13.468;2024-03-23T07:18:41;4.70;99.90
29341;DHT22;16337;59.536;13.468;2024-03-23T07:21:07;4.70;99.90
29341;DHT22;16337;59.536;13.468;2024-03-23T07:23:33;4.70;99.90
29341;DHT22;16337;59.536;13.468;2024-03-23T07:26:03;4.70;99.90
29341;DHT22;16337;59.536;13.468;2024-03-23T07:28:33;4.80;99.90
29341;DHT22;16337;59.536;13.468;2024-03-23T07:31:04;5.00;99.90
29341;DHT22;16337;59.536;13.468;2024-03-23T07:33:30;5.00;99.90
29341;DHT22;16337;59.536;13.468;2024-03-23T07:35:56;5.10;99.90
29341;DHT22;16337;59.536;13.468;2024-03-23T07:38:23;5.10;99.90
29341;DHT22;16337;59.536;13.468;2024-03-23T07:40:48;5.00;99.90
29341;DHT22;16337;59.536;13.468;2024-03-23T07:43:19;5.00;99.90
29341;DHT22;16337;59.536;13.468;2024-03-23T07:45:51;5.10;99.90
29341;DHT22;16337;59.536;13.468;2024-03-23T07:48:18;5.30;99.90
29341;DHT22;16337;59.536;13.468;2024-03-23T07:50:44;5.60;99.90
29341;DHT22;16337;59.536;13.468;2024-03-23T07:53:10;5.80;99.90
29341;DHT22;16337;59.536;13.468;2024-03-23T07:55:38;5.90;99.90
29341;DHT22;16337;59.536;13.468;2024-03-23T07:58:04;6.00;99.90
29341;DHT22;16337;59.536;13.468;2024-03-23T08:00:30;6.10;99.90
29341;DHT22;16337;59.536;13.468;2024-03-23T08:02:55;6.10;99.90
29341;DHT22;16337;59.536;13.468;2024-03-23T08:05:21;6.00;99.90
29341;DHT22;16337;59.536;13.468;2024-03-23T08:07:50;6.00;99.90
29341;DHT22;16337;59.536;13.468;2024-03-23T08:10:16;6.00;99.90
29341;DHT22;16337;59.536;13.468;2024-03-23T08:12:46;6.20;99.90
29341;DHT22;16337;59.536;13.468;2024-03-23T08:15:11;6.40;99.90
29341;DHT22;16337;59.536;13.468;2024-03-23T08:17:37;6.50;99.90
29341;DHT22;16337;59.536;13.468;2024-03-23T08:20:03;6.70;99.90
29341;DHT22;16337;59.536;13.468;2024-03-23T08:22:29;6.90;99.90
29341;DHT22;16337;59.536;13.468;2024-03-23T08:24:54;7.00;99.90
29341;DHT22;16337;59.536;13.468;2024-03-23T08:27:20;7.20;99.90
29341;DHT22;16337;59.536;13.468;2024-03-23T08:29:46;7.30;99.90
29341;DHT22;16337;59.536;13.468;2024-03-23T08:32:11;7.20;99.90
29341;DHT22;16337;59.536;13.468;2024-03-23T08:34:38;7.20;99.90
29341;DHT22;16337;59.536;13.468;2024-03-23T08:37:03;7.40;99.90
29341;DHT22;16337;59.536;13.468;2024-03-23T08:39:29;7.40;99.90
29341;DHT22;16337;59.536;13.468;2024-03-23T08:41:54;7.40;99.90
29341;DHT22;16337;59.536;13.468;2024-03-23T08:44:20;7.40;99.90
29341;DHT22;16337;59.536;13.468;2024-03-23T08:46:46;7.70;99.90
29341;DHT22;16337;59.536;13.468;2024-03-23T08:49:11;7.60;99.90
29341;DHT22;16337;59.536;13.468;2024-03-23T08:51:37;7.50;99.90
29341;DHT22;16337;59.536;13.468;2024-03-23T08:54:03;7.50;99.90
29341;DHT22;16337;59.536;13.468;2024-03-23T08:56:29;7.60;99.90
29341;DHT22;16337;59.536;13.468;2024-03-23T08:58:55;7.60;99.90
29341;DHT22;16337;59.536;13.468;2024-03-23T09:01:20;7.60;99.90
29341;DHT22;16337;59.536;13.468;2024-03-23T09:03:46;7.90;99.90
29341;DHT22;16337;59.536;13.468;2024-03-23T09:06:13;8.00;99.90
29341;DHT22;16337;59.536;13.468;2024-03-23T09:08:39;7.90;99.90
29341;DHT22;16337;59.536;13.468;2024-03-23T09:11:13;7.80;99.90
29341;DHT22;16337;59.536;13.468;2024-03-23T09:13:39;7.70;99.90
29341;DHT22;16337;59.536;13.468;2024-03-23T09:16:06;7.50;99.90
29341;DHT22;16337;59.536;13.468;2024-03-23T09:18:35;7.60;99.90
29341;DHT22;16337;59.536;13.468;2024-03-23T09:21:02;7.80;99.90
29341;DHT22;16337;59.536;13.468;2024-03-23T09:23:28;8.00;99.90
29341;DHT22;16337;59.536;13.468;2024-03-23T09:25:54;8.20;99.90
29341;DHT22;16337;59.536;13.468;2024-03-23T09:28:19;8.50;99.90
29341;DHT22;16337;59.536;13.468;2024-03-23T09:30:46;8.60;99.90
29341;DHT22;16337;59.536;13.468;2024-03-23T09:33:12;8.70;99.90
29341;DHT22;16337;59.536;13.468;2024-03-23T09:35:39;8.70;99.90
29341;DHT22;16337;59.536;13.468;2024-03-23T09:38:06;8.90;99.90
29341;DHT22;16337;59.536;13.468;2024-03-23T09:40:33;9.50;99.90
29341;DHT22;16337;59.536;13.468;2024-03-23T09:42:59;9.60;99.90
29341;DHT22;16337;59.536;13.468;2024-03-23T09:45:29;9.90;99.90
29341;DHT22;16337;59.536;13.468;2024-03-23T09:47:55;10.20;99.90
29341;DHT22;16337;59.536;13.468;2024-03-23T09:50:21;10.40;99.90
29341;DHT22;16337;59.536;13.468;2024-03-23T09:52:47;10.70;99.90
29341;DHT22;16337;59.536;13.468;2024-03-23T09:55:13;10.70;99.90
29341;DHT22;16337;59.536;13.468;2024-03-23T09:57:42;10.70;99.90
29341;DHT22;16337;59.536;13.468;2024-03-23T10:00:08;10.90;99.90
29341;DHT22;16337;59.536;13.468;2024-03-23T10:02:35;11.10;99.90
29341;DHT22;16337;59.536;13.468;2024-03-23T10:05:01;11.30;99.90
29341;DHT22;16337;59.536;13.468;2024-03-23T10:07:29;11.50;99.90
29341;DHT22;16337;59.536;13.468;2024-03-23T10:09:56;11.50;99.90
29341;DHT22;16337;59.536;13.468;2024-03-23T10:12:23;11.80;99.90
29341;DHT22;16337;59.536;13.468;2024-03-23T10:14:50;11.60;99.90
29341;DHT22;16337;59.536;13.468;2024-03-23T10:17:20;11.80;99.90
29341;DHT22;16337;59.536;13.468;2024-03-23T10:19:51;11.70;99.90
29341;DHT22;16337;59.536;13.468;2024-03-23T10:22:21;11.10;99.90
29341;DHT22;16337;59.536;13.468;2024-03-23T10:24:48;10.50;99.90
29341;DHT22;16337;59.536;13.468;2024-03-23T10:27:19;9.90;99.90
29341;DHT22;16337;59.536;13.468;2024-03-23T10:29:49;10.00;99.90
29341;DHT22;16337;59.536;13.468;2024-03-23T10:32:19;10.60;99.90
29341;DHT22;16337;59.536;13.468;2024-03-23T10:34:47;10.90;99.90
29341;DHT22;16337;59.536;13.468;2024-03-23T10:37:15;11.30;99.90
29341;DHT22;16337;59.536;13.468;2024-03-23T10:39:42;11.60;99.90
29341;DHT22;16337;59.536;13.468;2024-03-23T10:42:09;12.30;99.90
29341;DHT22;16337;59.536;13.468;2024-03-23T10:44:38;12.80;99.90
29341;DHT22;16337;59.536;13.468;2024-03-23T10:47:05;13.50;99.90
29341;DHT22;16337;59.536;13.468;2024-03-23T10:49:34;13.60;99.90
29341;DHT22;16337;59.536;13.468;2024-03-23T10:52:02;13.10;99.90
29341;DHT22;16337;59.536;13.468;2024-03-23T10:54:30;13.00;99.90
29341;DHT22;16337;59.536;13.468;2024-03-23T10:57:17;13.20;99.90
29341;DHT22;16337;59.536;13.468;2024-03-23T10:59:44;12.80;99.90
29341;DHT22;16337;59.536;13.468;2024-03-23T11:02:19;12.10;99.90
29341;DHT22;16337;59.536;13.468;2024-03-23T11:04:45;11.40;99.90
29341;DHT22;16337;59.536;13.468;2024-03-23T11:07:32;11.00;99.90
29341;DHT22;16337;59.536;13.468;2024-03-23T11:09:59;11.10;99.90
29341;DHT22;16337;59.536;13.468;2024-03-23T11:12:29;11.00;99.90
29341;DHT22;16337;59.536;13.468;2024-03-23T11:15:05;10.90;99.90
29341;DHT22;16337;59.536;13.468;2024-03-23T11:17:31;10.80;99.90
29341;DHT22;16337;59.536;13.468;2024-03-23T11:20:07;10.30;99.90
29341;DHT22;16337;59.536;13.468;2024-03-23T11:25:34;10.00;99.90
29341;DHT22;16337;59.536;13.468;2024-03-23T11:28:18;9.80;99.90
29341;DHT22;16337;59.536;13.468;2024-03-23T11:31:10;9.70;99.90
29341;DHT22;16337;59.536;13.468;2024-03-23T11:33:36;9.80;99.90
29341;DHT22;16337;59.536;13.468;2024-03-23T11:36:02;9.80;99.90
29341;DHT22;16337;59.536;13.468;2024-03-23T11:38:28;10.00;99.90
29341;DHT22;16337;59.536;13.468;2024-03-23T11:40:54;10.30;99.90
29341;DHT22;16337;59.536;13.468;2024-03-23T11:43:20;10.40;99.90
29341;DHT22;16337;59.536;13.468;2024-03-23T11:45:49;10.30;99.90
29341;DHT22;16337;59.536;13.468;2024-03-23T11:48:20;10.10;99.90
29341;DHT22;16337;59.536;13.468;2024-03-23T11:50:49;10.20;99.90
29341;DHT22;16337;59.536;13.468;2024-03-23T11:53:23;10.20;99.90
29341;DHT22;16337;59.536;13.468;2024-03-23T11:55:53;10.20;99.90
29341;DHT22;16337;59.536;13.468;2024-03-23T11:58:21;10.20;99.90
29341;DHT22;16337;59.536;13.468;2024-03-23T12:00:58;10.30;99.90
29341;DHT22;16337;59.536;13.468;2024-03-23T12:03:25;10.30;99.90
29341;DHT22;16337;59.536;13.468;2024-03-23T12:05:55;10.30;99.90
29341;DHT22;16337;59.536;13.468;2024-03-23T12:11:15;10.30;99.90
29341;DHT22;16337;59.536;13.468;2024-03-23T12:13:41;10.20;99.90
29341;DHT22;16337;59.536;13.468;2024-03-23T12:16:10;10.10;99.90
29341;DHT22;16337;59.536;13.468;2024-03-23T12:18:36;10.20;99.90
29341;DHT22;16337;59.536;13.468;2024-03-23T12:21:03;10.70;99.90
29341;DHT22;16337;59.536;13.468;2024-03-23T12:23:28;11.20;99.90
29341;DHT22;16337;59.536;13.468;2024-03-23T12:25:54;11.30;99.90
29341;DHT22;16337;59.536;13.468;2024-03-23T12:28:20;11.60;99.90
29341;DHT22;16337;59.536;13.468;2024-03-23T12:30:45;11.40;99.90
29341;DHT22;16337;59.536;13.468;2024-03-23T12:33:11;11.30;99.90
29341;DHT22;16337;59.536;13.468;2024-03-23T12:35:37;11.10;99.90
29341;DHT22;16337;59.536;13.468;2024-03-23T12:38:02;11.20;99.90
29341;DHT22;16337;59.536;13.468;2024-03-23T12:40:28;11.50;99.90
29341;DHT22;16337;59.536;13.468;2024-03-23T12:42:54;11.50;99.90
29341;DHT22;16337;59.536;13.468;2024-03-23T12:45:21;11.30;99.90
29341;DHT22;16337;59.536;13.468;2024-03-23T12:47:47;10.90;99.90
29341;DHT22;16337;59.536;13.468;2024-03-23T12:50:13;10.50;99.90
29341;DHT22;16337;59.536;13.468;2024-03-23T12:52:38;10.20;99.90
29341;DHT22;16337;59.536;13.468;2024-03-23T12:55:05;10.10;99.90
29341;DHT22;16337;59.536;13.468;2024-03-23T12:57:31;10.00;99.90
29341;DHT22;16337;59.536;13.468;2024-03-23T12:59:57;9.90;99.90
29341;DHT22;16337;59.536;13.468;2024-03-23T13:02:23;9.90;99.90
29341;DHT22;16337;59.536;13.468;2024-03-23T13:04:53;9.70;99.90
29341;DHT22;16337;59.536;13.468;2024-03-23T13:07:19;10.10;99.90
29341;DHT22;16337;59.536;13.468;2024-03-23T13:09:46;10.20;99.90
29341;DHT22;16337;59.536;13.468;2024-03-23T13:12:12;9.90;99.90
29341;DHT22;16337;59.536;13.468;2024-03-23T13:14:38;9.80;99.90
29341;DHT22;16337;59.536;13.468;2024-03-23T13:17:04;9.90;99.90
29341;DHT22;16337;59.536;13.468;2024-03-23T13:19:30;9.90;99.90
29341;DHT22;16337;59.536;13.468;2024-03-23T13:22:00;10.40;99.90
29341;DHT22;16337;59.536;13.468;2024-03-23T13:24:29;10.20;99.90
29341;DHT22;16337;59.536;13.468;2024-03-23T13:26:56;10.00;99.90
29341;DHT22;16337;59.536;13.468;2024-03-23T13:29:23;9.80;99.90
29341;DHT22;16337;59.536;13.468;2024-03-23T13:31:50;9.60;99.90
29341;DHT22;16337;59.536;13.468;2024-03-23T13:34:16;9.60;99.90
29341;DHT22;16337;59.536;13.468;2024-03-23T13:36:43;9.60;99.90
29341;DHT22;16337;59.536;13.468;2024-03-23T13:39:09;9.40;99.90
29341;DHT22;16337;59.536;13.468;2024-03-23T13:41:40;9.40;99.90
29341;DHT22;16337;59.536;13.468;2024-03-23T13:44:07;9.60;99.90
29341;DHT22;16337;59.536;13.468;2024-03-23T13:46:34;10.10;99.90
29341;DHT22;16337;59.536;13.468;2024-03-23T13:49:00;10.50;99.90
29341;DHT22;16337;59.536;13.468;2024-03-23T13:51:26;10.60;99.90
29341;DHT22;16337;59.536;13.468;2024-03-23T13:53:53;10.30;99.90
29341;DHT22;16337;59.536;13.468;2024-03-23T13:56:20;10.10;99.90
29341;DHT22;16337;59.536;13.468;2024-03-23T13:58:46;10.00;99.90
29341;DHT22;16337;59.536;13.468;2024-03-23T14:01:14;9.90;99.90
29341;DHT22;16337;59.536;13.468;2024-03-23T14:03:39;9.80;99.90
29341;DHT22;16337;59.536;13.468;2024-03-23T14:06:06;9.50;99.90
29341;DHT22;16337;59.536;13.468;2024-03-23T14:08:33;9.30;99.90
29341;DHT22;16337;59.536;13.468;2024-03-23T14:11:04;9.10;99.90
29341;DHT22;16337;59.536;13.468;2024-03-23T14:13:30;8.90;99.90
29341;DHT22;16337;59.536;13.468;2024-03-23T14:15:56;8.50;99.90
29341;DHT22;16337;59.536;13.468;2024-03-23T14:18:21;8.30;99.90
29341;DHT22;16337;59.536;13.468;2024-03-23T14:20:49;8.10;99.90
29341;DHT22;16337;59.536;13.468;2024-03-23T14:23:15;7.90;99.90
29341;DHT22;16337;59.536;13.468;2024-03-23T14:25:41;7.90;99.90
29341;DHT22;16337;59.536;13.468;2024-03-23T14:28:07;8.00;99.90
29341;DHT22;16337;59.536;13.468;2024-03-23T14:30:39;8.10;99.90
29341;DHT22;16337;59.536;13.468;2024-03-23T14:33:05;8.20;99.90
29341;DHT22;16337;59.536;13.468;2024-03-23T14:35:31;9.00;99.90
29341;DHT22;16337;59.536;13.468;2024-03-23T14:37:58;9.40;99.90
29341;DHT22;16337;59.536;13.468;2024-03-23T14:40:24;10.70;99.90
29341;DHT22;16337;59.536;13.468;2024-03-23T14:42:53;10.40;99.90
29341;DHT22;16337;59.536;13.468;2024-03-23T14:45:20;9.90;99.90
29341;DHT22;16337;59.536;13.468;2024-03-23T14:47:45;9.60;99.90
29341;DHT22;16337;59.536;13.468;2024-03-23T14:50:11;9.40;99.90
29341;DHT22;16337;59.536;13.468;2024-03-23T14:52:44;9.30;99.90
29341;DHT22;16337;59.536;13.468;2024-03-23T14:55:10;9.20;99.90
29341;DHT22;16337;59.536;13.468;2024-03-23T14:57:36;9.00;99.90
29341;DHT22;16337;59.536;13.468;2024-03-23T15:00:02;9.00;99.90
29341;DHT22;16337;59.536;13.468;2024-03-23T15:02:30;9.00;99.90
29341;DHT22;16337;59.536;13.468;2024-03-23T15:04:58;8.90;99.90
29341;DHT22;16337;59.536;13.468;2024-03-23T15:07:23;8.90;99.90
29341;DHT22;16337;59.536;13.468;2024-03-23T15:09:49;8.70;99.90
29341;DHT22;16337;59.536;13.468;2024-03-23T15:12:15;8.70;99.90
29341;DHT22;16337;59.536;13.468;2024-03-23T15:14:40;8.60;99.90
29341;DHT22;16337;59.536;13.468;2024-03-23T15:17:06;8.40;99.90
29341;DHT22;16337;59.536;13.468;2024-03-23T15:19:32;8.40;99.90
29341;DHT22;16337;59.536;13.468;2024-03-23T15:21:58;8.40;99.90
29341;DHT22;16337;59.536;13.468;2024-03-23T15:24:27;8.30;99.90
29341;DHT22;16337;59.536;13.468;2024-03-23T15:26:53;8.20;99.90
29341;DHT22;16337;59.536;13.468;2024-03-23T15:29:21;8.20;99.90
29341;DHT22;16337;59.536;13.468;2024-03-23T15:31:47;8.20;99.90
29341;DHT22;16337;59.536;13.468;2024-03-23T15:34:16;8.10;99.90
29341;DHT22;16337;59.536;13.468;2024-03-23T15:36:41;8.10;99.90
29341;DHT22;16337;59.536;13.468;2024-03-23T15:39:07;8.00;99.90
29341;DHT22;16337;59.536;13.468;2024-03-23T15:41:33;8.00;99.90
29341;DHT22;16337;59.536;13.468;2024-03-23T15:44:01;7.90;99.90
29341;DHT22;16337;59.536;13.468;2024-03-23T15:46:27;7.80;99.90
29341;DHT22;16337;59.536;13.468;2024-03-23T15:48:53;7.70;99.90
29341;DHT22;16337;59.536;13.468;2024-03-23T15:51:20;7.60;99.90
29341;DHT22;16337;59.536;13.468;2024-03-23T15:53:45;7.50;99.90
29341;DHT22;16337;59.536;13.468;2024-03-23T15:56:11;7.50;99.90
29341;DHT22;16337;59.536;13.468;2024-03-23T15:58:38;7.50;99.90
29341;DHT22;16337;59.536;13.468;2024-03-23T16:01:06;7.40;99.90
29341;DHT22;16337;59.536;13.468;2024-03-23T16:03:32;7.30;99.90
29341;DHT22;16337;59.536;13.468;2024-03-23T16:06:00;7.20;99.90
29341;DHT22;16337;59.536;13.468;2024-03-23T16:08:26;7.30;99.90
29341;DHT22;16337;59.536;13.468;2024-03-23T16:10:53;7.20;99.90
29341;DHT22;16337;59.536;13.468;2024-03-23T16:13:20;7.20;99.90
29341;DHT22;16337;59.536;13.468;2024-03-23T16:15:56;7.10;99.90
29341;DHT22;16337;59.536;13.468;2024-03-23T16:18:22;7.00;99.90
29341;DHT22;16337;59.536;13.468;2024-03-23T16:20:58;6.90;99.90